createdAt,value
2022-09-10T00:00:27.127Z,27.80
2022-09-10T00:06:40.161Z,27.80
2022-09-10T00:12:50.631Z,27.90
2022-09-10T00:19:03.670Z,27.80
2022-09-10T00:25:15.657Z,27.70
2022-09-10T00:31:25.879Z,27.70
2022-09-10T00:37:34.331Z,27.70
2022-09-10T00:43:57.167Z,27.70
2022-09-10T00:50:19.091Z,27.70
2022-09-10T00:56:30.308Z,27.60
2022-09-10T01:02:42.286Z,27.70
2022-09-10T01:08:51.271Z,27.70
2022-09-10T01:15:11.712Z,27.70
2022-09-10T01:21:25.611Z,27.80
2022-09-10T01:27:44.934Z,27.80
2022-09-10T01:33:57.776Z,27.70
2022-09-10T01:40:08.036Z,27.50
2022-09-10T01:46:26.797Z,27.40
2022-09-10T01:52:45.405Z,27.40
2022-09-10T01:58:59.995Z,27.50
2022-09-10T02:05:12.238Z,27.50
2022-09-10T02:11:21.724Z,27.50
2022-09-10T02:17:34.342Z,27.50
2022-09-10T02:23:48.594Z,27.60
2022-09-10T02:30:00.154Z,27.60
2022-09-10T02:36:08.950Z,27.50
2022-09-10T02:42:19.141Z,27.30
2022-09-10T02:48:35.340Z,27.20
2022-09-10T02:54:42.724Z,27.10
2022-09-10T03:00:59.004Z,27.00
2022-09-10T03:13:25.185Z,26.70
2022-09-10T03:19:34.381Z,26.60
2022-09-10T03:25:49.647Z,26.70
2022-09-10T03:31:59.291Z,26.90
2022-09-10T03:38:09.977Z,27.00
2022-09-10T03:44:20.385Z,27.10
2022-09-10T03:50:29.760Z,27.20
2022-09-10T03:56:38.585Z,27.10
2022-09-10T04:02:52.716Z,26.90
2022-09-10T04:09:03.797Z,26.70
2022-09-10T04:15:22.044Z,26.60
2022-09-10T04:21:32.150Z,26.70
2022-09-10T04:27:42.913Z,26.80
2022-09-10T04:33:53.154Z,26.90
2022-09-10T04:40:02.241Z,27.00
2022-09-10T04:46:12.530Z,27.10
2022-09-10T04:52:23.419Z,27.10
2022-09-10T04:58:38.670Z,27.10
2022-09-10T05:04:45.551Z,27.20
2022-09-10T05:10:57.136Z,27.10
2022-09-10T05:17:08.039Z,26.80
2022-09-10T05:23:15.322Z,26.60
2022-09-10T05:29:23.192Z,26.50
2022-09-10T05:35:31.490Z,26.40
2022-09-10T05:41:41.427Z,26.20
2022-09-10T05:47:51.271Z,26.10
2022-09-10T05:54:02.772Z,26.10
2022-09-10T06:00:15.471Z,25.90
2022-09-10T06:06:27.246Z,25.80
2022-09-10T06:12:40.470Z,25.70
2022-09-10T06:18:51.099Z,25.70
2022-09-10T06:25:00.226Z,25.60
2022-09-10T06:31:08.708Z,25.60
2022-09-10T06:37:16.394Z,25.50
2022-09-10T06:43:26.833Z,25.40
2022-09-10T06:49:38.381Z,25.30
2022-09-10T06:55:46.447Z,25.30
2022-09-10T07:01:57.987Z,25.20
2022-09-10T07:08:11.283Z,25.10
2022-09-10T07:14:23.996Z,24.90
2022-09-10T07:20:40.641Z,24.90
2022-09-10T07:26:53.015Z,24.90
2022-09-10T07:33:06.136Z,24.80
2022-09-10T07:39:20.417Z,24.70
2022-09-10T07:45:29.612Z,24.60
2022-09-10T07:51:38.972Z,24.60
2022-09-10T07:57:47.225Z,24.60
2022-09-10T08:03:56.838Z,24.50
2022-09-10T08:10:05.731Z,24.50
2022-09-10T08:16:14.775Z,24.40
2022-09-10T08:22:24.644Z,24.30
2022-09-10T08:28:37.126Z,24.30
2022-09-10T08:34:46.864Z,24.20
2022-09-10T08:40:59.995Z,24.10
2022-09-10T08:47:13.580Z,24.30
2022-09-10T08:53:27.540Z,24.40
2022-09-10T08:59:40.770Z,24.60
2022-09-10T09:05:52.859Z,24.60
2022-09-10T09:12:06.878Z,24.70
2022-09-10T09:18:21.342Z,24.80
2022-09-10T09:24:35.377Z,24.90
2022-09-10T09:30:48.009Z,24.90
2022-09-10T09:37:02.380Z,25.00
2022-09-10T09:43:17.225Z,25.00
2022-09-10T09:49:27.963Z,25.00
2022-09-10T09:55:42.241Z,25.00
2022-09-10T10:01:53.868Z,25.00
2022-09-10T10:08:01.978Z,25.00
2022-09-10T10:14:27.639Z,25.10
2022-09-10T10:20:42.590Z,25.10
2022-09-10T10:26:51.631Z,25.10
2022-09-10T10:33:04.409Z,25.10
2022-09-10T10:39:16.255Z,25.10
2022-09-10T10:45:37.239Z,25.10
2022-09-10T10:51:47.436Z,25.10
2022-09-10T10:58:08.734Z,25.00
2022-09-10T11:04:30.046Z,25.00
2022-09-10T11:10:45.173Z,25.10
2022-09-10T11:16:58.485Z,25.10
2022-09-10T11:23:10.039Z,25.10
2022-09-10T11:29:30.023Z,25.10
2022-09-10T11:35:43.194Z,25.10
2022-09-10T11:41:57.943Z,25.10
2022-09-10T11:48:10.999Z,25.10
2022-09-10T11:54:21.458Z,24.90
2022-09-10T12:00:31.206Z,24.90
2022-09-10T12:06:43.549Z,25.10
2022-09-10T12:12:54.018Z,25.10
2022-09-10T12:19:05.161Z,25.10
2022-09-10T12:25:33.909Z,24.90
2022-09-10T12:31:57.511Z,25.00
2022-09-10T12:38:40.184Z,25.20
2022-09-10T12:44:56.842Z,25.30
2022-09-10T12:51:10.785Z,25.30
2022-09-10T12:57:43.194Z,25.20
2022-09-10T13:03:58.487Z,25.40
2022-09-10T13:10:11.266Z,25.60
2022-09-10T13:16:23.295Z,25.70
2022-09-10T13:23:02.626Z,25.70
2022-09-10T13:29:15.395Z,25.70
2022-09-10T13:35:55.925Z,25.80
2022-09-10T13:42:14.666Z,25.90
2022-09-10T13:48:27.900Z,26.10
2022-09-10T13:54:43.013Z,26.10
2022-09-10T14:01:00.603Z,26.10
2022-09-10T14:07:13.109Z,26.40
2022-09-10T14:13:24.995Z,26.60
2022-09-10T14:19:39.840Z,26.80
2022-09-10T14:25:49.521Z,26.90
2022-09-10T14:32:04.220Z,27.00
2022-09-10T14:38:27.573Z,27.10
2022-09-10T14:44:40.927Z,27.30
2022-09-10T14:50:51.539Z,27.40
2022-09-10T14:57:01.813Z,27.50
2022-09-10T15:03:18.551Z,27.50
2022-09-10T15:09:29.959Z,27.60
2022-09-10T15:15:42.068Z,27.60
2022-09-10T15:21:54.735Z,27.70
2022-09-10T15:28:10.667Z,27.70
2022-09-10T15:34:25.381Z,27.80
2022-09-10T15:40:39.807Z,27.80
2022-09-10T15:46:54.630Z,27.90
2022-09-10T15:53:08.427Z,27.90
2022-09-10T15:59:20.048Z,27.90
2022-09-10T16:05:30.597Z,27.90
2022-09-10T16:11:45.384Z,28.00
2022-09-10T16:18:02.937Z,28.00
2022-09-10T16:24:16.876Z,28.00
2022-09-10T16:30:31.130Z,28.00
2022-09-10T16:36:44.162Z,28.10
2022-09-10T16:42:59.491Z,28.10
2022-09-10T16:49:11.131Z,28.20
2022-09-10T16:55:25.018Z,28.20
2022-09-10T17:01:35.537Z,28.20
2022-09-10T17:07:48.374Z,28.20
2022-09-10T17:14:03.616Z,28.20
2022-09-10T17:20:22.331Z,28.30
2022-09-10T17:26:35.512Z,28.30
2022-09-10T17:32:46.340Z,28.40
2022-09-10T17:38:55.606Z,28.40
2022-09-10T17:45:05.259Z,28.40
2022-09-10T17:51:18.399Z,28.40
2022-09-10T17:57:28.343Z,28.40
2022-09-10T18:03:41.073Z,28.50
2022-09-10T18:09:52.543Z,28.60
2022-09-10T18:16:01.641Z,28.50
2022-09-10T18:22:13.107Z,28.20
2022-09-10T18:28:26.146Z,28.00
2022-09-10T18:34:38.552Z,27.90
2022-09-10T18:40:51.900Z,28.10
2022-09-10T18:47:02.408Z,28.30
2022-09-10T18:53:14.482Z,28.40
2022-09-10T18:59:28.277Z,28.50
2022-09-10T19:05:42.591Z,28.10
2022-09-10T19:11:54.707Z,27.80
2022-09-10T19:18:08.897Z,27.50
2022-09-10T19:24:25.359Z,27.50
2022-09-10T19:30:31.518Z,27.70
2022-09-10T19:36:43.705Z,27.90
2022-09-10T19:42:55.766Z,28.10
2022-09-10T19:49:08.850Z,28.20
2022-09-10T19:55:24.684Z,28.20
2022-09-10T20:01:36.181Z,28.20
2022-09-10T20:07:50.731Z,28.30
2022-09-10T20:14:03.507Z,28.30
2022-09-10T20:20:14.252Z,28.20
2022-09-10T20:26:28.661Z,28.20
2022-09-10T20:32:36.734Z,28.00
2022-09-10T20:38:53.468Z,27.50
2022-09-10T20:45:06.254Z,27.30
2022-09-10T20:51:20.335Z,27.40
2022-09-10T20:57:32.219Z,27.60
2022-09-10T21:03:44.713Z,27.70
2022-09-10T21:09:55.523Z,27.90
2022-09-10T21:16:16.193Z,28.00
2022-09-10T21:22:29.154Z,27.90
2022-09-10T21:28:43.362Z,27.90
2022-09-10T21:34:53.927Z,28.00
2022-09-10T21:41:06.942Z,28.10
2022-09-10T21:47:16.932Z,28.00
2022-09-10T21:53:26.047Z,27.70
2022-09-10T21:59:39.538Z,27.30
2022-09-10T22:05:51.699Z,27.10
2022-09-10T22:12:07.079Z,26.90
2022-09-10T22:18:20.503Z,26.80
2022-09-10T22:24:33.146Z,26.80
2022-09-10T22:30:46.750Z,27.10
2022-09-10T22:36:54.782Z,27.40
2022-09-10T22:43:02.925Z,27.60
2022-09-10T22:49:15.286Z,27.80
2022-09-10T22:55:29.842Z,27.90
2022-09-10T23:01:43.232Z,28.00
2022-09-10T23:07:58.122Z,28.10
2022-09-10T23:20:27.846Z,28.00
2022-09-10T23:26:42.081Z,28.00
2022-09-10T23:32:56.959Z,28.10
2022-09-10T23:39:10.024Z,28.20
2022-09-10T23:45:24.284Z,28.30
2022-09-10T23:51:35.917Z,28.10
2022-09-10T23:57:47.584Z,27.60
